createdAt,value
2022-11-27T00:00:33.813Z,75.10
2022-11-27T00:06:26.375Z,75.10
2022-11-27T00:11:57.318Z,74.60
2022-11-27T00:17:28.540Z,75.07
2022-11-27T00:22:59.767Z,75.25
2022-11-27T00:28:32.117Z,75.17
2022-11-27T00:34:05.890Z,75.15
2022-11-27T00:39:36.985Z,75.13
2022-11-27T00:45:08.961Z,75.48
2022-11-27T00:50:40.384Z,74.91
2022-11-27T00:56:17.349Z,74.98
2022-11-27T01:01:49.332Z,75.05
2022-11-27T01:07:20.581Z,74.10
2022-11-27T01:12:51.935Z,75.12
2022-11-27T01:18:22.810Z,75.02
2022-11-27T01:23:54.596Z,73.99
2022-11-27T01:29:25.485Z,75.06
2022-11-27T01:34:56.819Z,73.71
2022-11-27T01:40:28.162Z,74.80
2022-11-27T01:45:59.335Z,74.42
2022-11-27T01:51:31.515Z,74.67
2022-11-27T01:57:07.005Z,73.89
2022-11-27T02:02:38.067Z,74.08
2022-11-27T02:08:11.230Z,74.11
2022-11-27T02:13:58.755Z,73.90
2022-11-27T02:20:12.139Z,74.09
2022-11-27T02:26:07.528Z,74.25
2022-11-27T02:32:00.231Z,73.37
2022-11-27T02:37:58.021Z,73.25
2022-11-27T02:43:40.508Z,74.02
2022-11-27T02:49:13.563Z,73.50
2022-11-27T02:54:44.986Z,73.46
2022-11-27T03:00:17.247Z,73.18
2022-11-27T03:05:50.911Z,72.60
2022-11-27T03:11:22.556Z,72.50
2022-11-27T03:17:18.531Z,72.95
2022-11-27T03:22:49.522Z,72.80
2022-11-27T03:28:21.520Z,73.05
2022-11-27T03:33:54.667Z,72.75
2022-11-27T03:39:26.717Z,73.01
2022-11-27T03:45:18.501Z,73.28
2022-11-27T03:51:00.238Z,72.79
2022-11-27T03:56:40.395Z,72.01
2022-11-27T04:02:15.566Z,72.22
2022-11-27T04:07:47.501Z,72.12
2022-11-27T04:13:18.390Z,72.73
2022-11-27T04:18:49.626Z,71.84
2022-11-27T04:24:20.709Z,72.07
2022-11-27T04:29:52.082Z,72.34
2022-11-27T04:35:23.055Z,72.48
2022-11-27T04:40:54.935Z,71.99
2022-11-27T04:46:25.847Z,71.84
2022-11-27T04:51:57.031Z,71.88
2022-11-27T04:57:28.588Z,71.81
2022-11-27T05:03:00.110Z,71.72
2022-11-27T05:08:33.109Z,71.95
2022-11-27T05:14:20.974Z,71.88
2022-11-27T05:19:51.948Z,71.77
2022-11-27T05:25:23.234Z,71.73
2022-11-27T05:30:54.931Z,71.46
2022-11-27T05:36:26.399Z,71.69
2022-11-27T05:41:57.299Z,71.73
2022-11-27T05:47:28.377Z,72.08
2022-11-27T05:52:59.770Z,72.09
2022-11-27T05:58:31.443Z,71.38
2022-11-27T06:04:02.570Z,71.24
2022-11-27T06:09:33.736Z,72.01
2022-11-27T06:15:05.118Z,72.14
2022-11-27T06:20:40.835Z,71.55
2022-11-27T06:26:26.706Z,71.82
2022-11-27T06:31:58.285Z,71.06
2022-11-27T06:37:29.562Z,71.88
2022-11-27T06:43:00.895Z,71.81
2022-11-27T06:48:32.866Z,72.09
2022-11-27T06:54:04.164Z,71.90
2022-11-27T06:59:35.087Z,71.22
2022-11-27T07:05:06.432Z,71.29
2022-11-27T07:10:37.546Z,71.31
2022-11-27T07:16:10.730Z,71.65
2022-11-27T07:21:42.138Z,71.39
2022-11-27T07:27:13.579Z,70.61
2022-11-27T07:32:45.003Z,70.65
2022-11-27T07:38:16.111Z,71.21
2022-11-27T07:43:47.743Z,70.55
2022-11-27T07:49:19.121Z,70.91
2022-11-27T07:54:50.307Z,70.76
2022-11-27T08:00:21.847Z,71.11
2022-11-27T08:05:53.140Z,70.86
2022-11-27T08:11:35.657Z,70.38
2022-11-27T08:17:07.038Z,72.03
2022-11-27T08:22:37.921Z,70.37
2022-11-27T08:28:09.183Z,70.98
2022-11-27T08:33:41.160Z,71.28
2022-11-27T08:39:12.480Z,71.02
2022-11-27T08:44:43.552Z,70.78
2022-11-27T08:50:14.812Z,71.31
2022-11-27T08:55:46.568Z,71.01
2022-11-27T09:01:23.755Z,72.08
2022-11-27T09:06:58.362Z,71.66
2022-11-27T09:12:29.785Z,71.72
2022-11-27T09:18:00.654Z,71.61
2022-11-27T09:23:33.301Z,72.28
2022-11-27T09:29:04.572Z,71.89
2022-11-27T09:34:37.689Z,72.47
2022-11-27T09:40:14.411Z,72.10
2022-11-27T09:45:49.999Z,72.26
2022-11-27T09:52:06.239Z,72.26
2022-11-27T09:57:38.288Z,72.66
2022-11-27T10:03:15.012Z,72.42
2022-11-27T10:09:14.436Z,72.60
2022-11-27T10:15:00.601Z,71.93
2022-11-27T10:20:39.956Z,72.51
2022-11-27T10:26:28.419Z,72.44
2022-11-27T10:32:54.751Z,72.46
2022-11-27T10:38:24.541Z,72.34
2022-11-27T10:43:58.158Z,72.18
2022-11-27T10:49:29.467Z,72.63
2022-11-27T10:55:03.986Z,71.71
2022-11-27T11:00:35.062Z,71.99
2022-11-27T11:06:21.348Z,72.38
2022-11-27T11:11:53.776Z,72.12
2022-11-27T11:17:34.909Z,72.12
2022-11-27T11:23:06.761Z,71.83
2022-11-27T11:28:47.625Z,72.33
2022-11-27T11:34:24.712Z,72.16
2022-11-27T11:40:02.538Z,72.35
2022-11-27T11:45:35.072Z,72.54
2022-11-27T11:51:17.237Z,72.57
2022-11-27T11:56:52.675Z,72.47
2022-11-27T12:02:59.260Z,72.53
2022-11-27T12:08:56.372Z,72.61
2022-11-27T12:14:40.242Z,72.79
2022-11-27T12:20:15.992Z,72.44
2022-11-27T12:26:07.384Z,72.39
2022-11-27T12:31:48.284Z,72.49
2022-11-27T12:37:19.603Z,72.92
2022-11-27T12:43:07.545Z,72.40
2022-11-27T12:48:45.942Z,72.54
2022-11-27T12:54:30.129Z,72.70
2022-11-27T13:00:06.061Z,72.40
2022-11-27T13:06:12.541Z,72.54
2022-11-27T13:11:43.692Z,72.83
2022-11-27T13:17:17.270Z,72.50
2022-11-27T13:22:48.903Z,72.65
2022-11-27T13:28:43.888Z,72.39
2022-11-27T13:34:21.212Z,72.89
2022-11-27T13:40:04.202Z,72.83
2022-11-27T13:45:37.199Z,72.83
2022-11-27T13:51:10.302Z,72.63
2022-11-27T13:56:41.414Z,72.57
2022-11-27T14:02:12.491Z,73.06
2022-11-27T14:07:46.969Z,72.66
2022-11-27T14:13:22.373Z,72.65
2022-11-27T14:18:59.058Z,72.96
2022-11-27T14:24:33.009Z,72.99
2022-11-27T14:30:25.826Z,72.85
2022-11-27T14:36:05.080Z,72.79
2022-11-27T14:41:36.212Z,72.88
2022-11-27T14:47:08.480Z,73.10
2022-11-27T14:52:40.727Z,72.51
2022-11-27T14:58:18.803Z,72.71
2022-11-27T15:04:05.726Z,72.80
2022-11-27T15:09:37.091Z,73.10
2022-11-27T15:15:21.107Z,72.89
2022-11-27T15:20:52.287Z,73.20
2022-11-27T15:26:39.980Z,72.77
2022-11-27T15:32:23.795Z,73.06
2022-11-27T15:37:57.576Z,72.75
2022-11-27T15:43:28.671Z,73.19
2022-11-27T15:49:00.119Z,72.81
2022-11-27T15:54:31.182Z,72.90
2022-11-27T16:00:02.240Z,72.43
2022-11-27T16:05:43.026Z,72.96
2022-11-27T16:11:14.990Z,72.69
2022-11-27T16:16:46.301Z,72.71
2022-11-27T16:22:17.592Z,73.01
2022-11-27T16:27:48.864Z,72.77
2022-11-27T16:33:21.463Z,72.26
2022-11-27T16:38:54.578Z,72.50
2022-11-27T16:44:28.496Z,72.96
2022-11-27T16:49:59.597Z,72.64
2022-11-27T16:55:32.140Z,72.90
2022-11-27T17:01:11.039Z,72.10
2022-11-27T17:06:42.702Z,72.25
2022-11-27T17:12:13.930Z,72.44
2022-11-27T17:17:45.487Z,72.16
2022-11-27T17:23:16.618Z,72.60
2022-11-27T17:28:48.246Z,72.55
2022-11-27T17:34:20.733Z,72.12
2022-11-27T17:39:53.160Z,72.05
2022-11-27T17:45:24.026Z,72.44
2022-11-27T17:50:55.367Z,71.88
2022-11-27T17:56:27.779Z,72.14
2022-11-27T18:01:59.846Z,71.66
2022-11-27T18:07:31.339Z,72.28
2022-11-27T18:13:03.549Z,71.90
2022-11-27T18:18:35.943Z,71.78
2022-11-27T18:24:23.145Z,72.53
2022-11-27T18:29:54.935Z,71.69
2022-11-27T18:35:25.971Z,71.81
2022-11-27T18:41:08.345Z,72.21
2022-11-27T18:46:39.939Z,71.82
2022-11-27T18:52:11.932Z,71.83
2022-11-27T18:57:43.188Z,72.22
2022-11-27T19:03:15.746Z,71.50
2022-11-27T19:08:47.833Z,71.60
2022-11-27T19:14:19.507Z,71.66
2022-11-27T19:19:54.161Z,72.13
2022-11-27T19:25:26.340Z,71.73
2022-11-27T19:30:57.631Z,70.82
2022-11-27T19:36:30.393Z,70.76
2022-11-27T19:42:01.911Z,71.59
2022-11-27T19:47:33.690Z,71.05
2022-11-27T19:53:07.243Z,71.80
2022-11-27T19:58:38.757Z,70.99
2022-11-27T20:04:11.421Z,70.89
2022-11-27T20:09:42.761Z,71.08
2022-11-27T20:15:17.386Z,71.25
2022-11-27T20:20:48.167Z,70.92
2022-11-27T20:26:22.303Z,70.50
2022-11-27T20:31:53.651Z,70.26
2022-11-27T20:37:25.704Z,70.81
2022-11-27T20:42:59.764Z,70.42
2022-11-27T20:48:31.981Z,70.69
2022-11-27T20:54:03.531Z,70.66
2022-11-27T20:59:34.893Z,70.39
2022-11-27T21:05:06.870Z,71.07
2022-11-27T21:10:38.499Z,70.75
2022-11-27T21:16:13.632Z,70.49
2022-11-27T21:21:45.446Z,70.55
2022-11-27T21:27:16.846Z,70.24
2022-11-27T21:32:48.215Z,70.32
2022-11-27T21:38:19.283Z,70.40
2022-11-27T21:43:55.699Z,70.74
2022-11-27T21:49:26.899Z,70.50
2022-11-27T21:54:58.725Z,70.64
2022-11-27T22:00:29.671Z,70.41
2022-11-27T22:06:03.359Z,71.08
2022-11-27T22:11:34.815Z,70.83
2022-11-27T22:17:06.627Z,70.92
2022-11-27T22:22:38.057Z,70.52
2022-11-27T22:28:10.261Z,70.56
2022-11-27T22:33:43.156Z,70.45
2022-11-27T22:39:14.498Z,70.38
2022-11-27T22:44:45.751Z,70.38
2022-11-27T22:50:17.407Z,71.07
2022-11-27T22:55:48.450Z,70.78
2022-11-27T23:01:25.316Z,70.43
2022-11-27T23:06:56.987Z,70.98
2022-11-27T23:12:28.749Z,70.80
2022-11-27T23:17:59.854Z,70.35
2022-11-27T23:23:31.327Z,70.83
2022-11-27T23:29:03.555Z,70.84
2022-11-27T23:34:34.744Z,70.37
2022-11-27T23:40:07.125Z,70.54
2022-11-27T23:45:38.401Z,70.72
2022-11-27T23:51:15.905Z,71.06
2022-11-27T23:56:51.711Z,70.31
